Hauptseite
METAR-TAF:

METAR-TAF

Flughäfen :

Heeresflugplatz Fritzlar

Fritzlar, Deutschland

Breite: 51-07N, Länge: 009-17E, Höhe: 172 m

Beobachtung

Neuester Wetterbericht von vor 1 Stunde und 13 Minuten, um 18:20 UTC
Wind 5 kt aus Süd/Südwest
Temperatur 25°C
Luftfeuchtigkeit 30%
Luftdruck 1017 hPa
Sichtweite 10 km oder mehr

METAR: ETHF 051820Z 20005KT 9999 25/06 Q1017 BLU+

Zeit: 21:33 (19:33 UTC)

Prognose

Neuester Wetterbericht von vor 6 Stunden und 24 Minuten, um 13:09 UTC
Gültige Prognose vom 05 um 14 UTC bis 05 um 23 UTC
Wind 7 kt aus Südwest
Sichtweite 10 km oder mehr
Leicht bewölkt in der Höhe von 6000 ft

TAF: ETHF 051309Z 0514/0523 22007KT 9999 NSW FEW060

Wetterbeobachtungen und Prognosen von mehr als 4000 Flughäfen (METAR und TAF Bericht).

Die verfügbaren Stationen werden durch gelbe und rote Markierungen auf der Karte dargestellt.

Führen Sie die Maus auf sie, um den Namen der Station zu sehen.

Darauf klicken, um die Beobachtung von Wetterbeobachtungen und Prognosen zu sehen.

Um die Karte zu ändern : klicken Sie auf den grünen Tasten mit einem schwarzen Kreuz Zum Vergrößern, auf den grünen Button mit einem Gedankenstrich zu verkleinern, oder auf die grünen Pfeile für benachbarte Karten.


METAR-TAF: